• Join FlightAware (Why Join?)
  • Login
  • US Flag 
05:08PM EDT


 

Airport Tracker/Info


-or-


 

Live Flight TrackerFlight Track Log ✈ AWE3997 ✈ 13-Apr-2013 ✈ KRIC - KCLT

Flight Track Log - Related Links

Times and Time Zones

All times are in EDT time to prevent confusion due to time zone crossing. See the AWE3997 flight status page for this flight to view local times or setup timezone preferences in your user account.

Time Position Orientation Groundspeed Altitude Reporting Facility
EDT Latitude Longitude Course Direction KTS MPH feet Rate Location/Type
04:12PM 37.4506 -77.4022 245° Southwest 168 193 4,100  Level Washington Center
04:13PM 37.4235 -77.6428 254° West  Level FlightAware Approximate
04:13PM 37.4389 -77.4778 259° West 188 216 6,400  Level Washington Center
04:14PM 37.3968 -77.7585 254° West  Level FlightAware Approximate
04:14PM 37.4250 -77.5636 259° West 229 264 9,300  Level Washington Center
04:15PM 37.3705 -77.8743 254° West  Level FlightAware Approximate
04:15PM 37.4131 -77.6497 260° West 246 283 11,500  Level Washington Center
04:16PM 37.3500 -77.9911 270° West  Level FlightAware Approximate
04:16PM 37.3989 -77.7408 259° West 259 298 13,000  Level Washington Center
04:17PM 37.3825 -77.8369 258° West 277 319 14,900 1,860 Climbing Washington Center
04:18PM 37.3661 -77.9358 258° West 283 326 16,800 1,620 Climbing Washington Center
04:19PM 37.3475 -78.0372 257° West 294 338 18,200 1,500 Climbing Washington Center
04:20PM 37.3244 -78.1383 254° West 300 345 19,900 840 Climbing Washington Center
04:21PM 37.3058 -78.2317 256° West 300 345 20,000  Climbing Washington Center
04:22PM 37.2847 -78.3378 256° West 305 351 20,000  Level Washington Center
04:23PM 37.2800 -78.4422 267° West 310 357 20,000 780 Level Washington Center
04:24PM 37.2772 -78.5622 268° West 310 357 21,600 1,260 Climbing Washington Center
04:25PM 37.2744 -78.6692 268° West 310 357 22,600 900 Climbing Washington Center
04:26PM 37.2694 -78.7758 267° West 310 357 23,500 660 Climbing Washington Center
04:27PM 37.2667 -78.8853 268° West 310 357 24,000 240 Climbing Washington Center
04:28PM 37.2639 -78.9844 268° West 310 357 24,000  Level Washington Center
04:29PM 37.2589 -79.0886 267° West 310 357 24,000  Level Washington Center
04:30PM 37.2042 -79.1694 230° Southwest 297 342 24,000  Level Washington Center
04:31PM 37.1333 -79.2339 216° Southwest 297 342 24,000  Level Washington Center
04:32PM 37.0625 -79.3033 218° Southwest 308 354 24,000  Level Washington Center
04:33PM 36.9808 -79.3800 217° Southwest 334 384 24,000  Level Washington Center
04:34PM 36.9056 -79.4492 216° Southwest 339 390 24,000  Level Washington Center
04:35PM 36.8367 -79.5183 219° Southwest 334 384 24,000  Level Washington Center
04:36PM 36.7633 -79.5847 216° Southwest 334 384 24,000  Level Washington Center
04:37PM 36.7008 -79.6461 218° Southwest 334 384 24,000  Level Washington Center
04:38PM 36.6319 -79.7100 217° Southwest 334 384 24,000  Level Washington Center
04:39PM 36.5564 -79.7808 217° Southwest 334 384 24,000  Level Washington Center
04:40PM 36.4808 -79.8517 217° Southwest 339 390 24,000 -240 Level Washington Center
04:41PM 36.4183 -79.9056 215° Southwest 343 395 23,700 -1,140 Descending Atlanta Center
04:42PM 36.3456 -79.9739 217° Southwest 356 410 22,200 -900 Descending Atlanta Center
04:43PM 36.2767 -80.0339 215° Southwest 342 394 22,000 -720 Descending Atlanta Center
04:44PM 36.2017 -80.0994 215° Southwest 342 394 20,800 -1,500 Descending Atlanta Center
04:45PM 36.1203 -80.1703 215° Southwest 348 400 19,000 -1,800 Descending Atlanta Center
04:46PM 36.0431 -80.2331 213° Southwest 348 400 17,300 -1,980 Descending Atlanta Center
04:47PM 35.9578 -80.3089 216° Southwest 348 400 15,100 -2,040 Descending Atlanta Center
04:47PM 35.9233 -80.3436 219° Southwest 347 399 14,400 -1,620 Descending Atlanta Center
04:48PM 35.8764 -80.3792 212° Southwest 348 400 13,500 -1,140 Descending Atlanta Center
04:49PM 35.8236 -80.4250 215° Southwest 327 376 12,900 -780 Descending Atlanta Center
04:50PM 35.7606 -80.4792 215° Southwest 282 325 12,200 -840 Descending Atlanta Center
04:50PM 35.7381 -80.4953 210° Southwest 313 360 11,900 -1,080 Descending Atlanta Center
04:51PM 35.6617 -80.5217 196° South 288 331 10,800 -1,260 Descending Atlanta Center
04:52PM 35.6100 -80.5392 195° South 264 304 9,800 -1,320 Descending Atlanta Center
04:52PM 35.5933 -80.5450 196° South 271 312 9,500 -1,200 Descending Atlanta Center
04:53PM 35.5417 -80.5575 191° South 246 283 8,600 -1,320 Descending Atlanta Center
04:53PM 35.5231 -80.5658 200° South 266 306 8,200 -1,200 Descending Atlanta Center
04:54PM 35.4778 -80.5883 202° Southwest 249 287 7,400 -1,200 Descending Atlanta Center
04:55PM 35.4314 -80.6461 225° Southwest 210 242 6,100 -960 Descending Atlanta Center
04:56PM 35.4014 -80.6883 229° Southwest 197 227 5,600 -600 Descending Atlanta Center
04:56PM 35.3892 -80.7014 221° Southwest 212 244 5,400 -900 Descending Atlanta Center
04:57PM 35.3531 -80.7539 230° Southwest 207 238 4,500 -900 Descending Atlanta Center